Daniel Deac

Chefscout - CFR Cluj
11 Mär 2027
Donnerstag
Verarbeitung

Persönlichkeit

Anpassungsfähigkeit (6) Ehrgeiz (6) Kontroverse (16) Loyalität (16) Druck (15) Professionalität (18) Fairness (10) Temperament (5)

Profil

Trainerstil Demokratisch
Lizenz Kontinentale Pro
Entschlossenheit 4
Menschenführung 13
Motivation 13
Disziplin 8
Arbeitszufriedenheit
49%
Ermüdung
0%
Rolle Chefscout
Gehalt 52.2K p/W
Vertrag 14.03.2030

Leistung

Verhalten Normal
Trainingseffektivität
22%
Spielerentwicklung
25%
Verletzungsprävention
35%
Taktische Umsetzung
65%

Letzte Ereignisse

Spieler begutachtet jetzt
Nahm an einer Scouting-Besprechung teil jetzt
Empfahl ein Transferziel jetzt
Empfahl ein Transferziel jetzt
Nahm an einer Scouting-Besprechung teil jetzt
Nahm an einer Scouting-Besprechung teil jetzt
Nahm an einer Scouting-Besprechung teil jetzt
Spieler begutachtet jetzt

Aktuell beobachtet

101
Spieler Verein Status Fähigkeit Vertrauen Beobachtet Zuletzt beobachtet Letzte Stimme
Chiquinho Alverca Aktiv 134 / 133 40% 2 10.03.2027 -
Tristan Crama Millwall Aktiv 124 / 134 40% 1 10.03.2027 -
José Paradela Cruz Azul Aktiv 132 / 131 40% 6 09.03.2027 -
Lassina Traoré Shakhtar Aktiv 128 / 128 40% 1 09.03.2027 -
Kwame Opoku Asante Kotoko Aktiv 106 / 98 40% 1 09.03.2027 -
Tshepang Moremi Orlando Pirates Aktiv 101 / 112 40% 1 09.03.2027 -
Josh Murphy Portsmouth Aktiv 132 / 120 40% 1 08.03.2027 -
Richard Koné Queens Park Rangers Aktiv 113 / 133 40% 1 07.03.2027 -
Miles Leaburn Charlton Athletic Aktiv 114 / 125 40% 1 07.03.2027 -
Marcelo Allende Mamelodi Sundowns Aktiv 150 / 129 40% 5 06.03.2027 Beobachten
Zeidane Inoussa Swansea City Aktiv 128 / 113 40% 1 04.03.2027 -
Aaron Connolly Leyton Orient Aktiv 121 / 130 40% 1 04.03.2027 -
Robert Mizo Ashanti Gold Aktiv 88 / 85 40% 1 04.03.2027 -
Harrison Ofori Liberty Professionals Aktiv 115 / 118 40% 1 04.03.2027 -
Stav Toriel Hapoel Tel Aviv Aktiv 123 / 110 40% 3 02.03.2027 -
Akor Adams Venezia Aktiv 150 / 133 40% 1 02.03.2027 -
Xeber Alkain Karpaty Aktiv 135 / 122 40% 2 04.02.2027 -
Everton Bala Levski Aktiv 122 / 136 40% 2 04.02.2027 -
Kristoffer Lund Birmingham Aktiv 131 / 126 40% 1 01.02.2027 -
Ollie Tanner Cardiff City Aktiv 106 / 104 40% 1 01.02.2027 -
Suleiman Camara Slovan Bratislava Aktiv 131 / 111 40% 5 30.01.2027 -
Darlin Yongwa Norwich City Aktiv 134 / 120 40% 1 30.01.2027 -
Mathias Jørgensen Blackburn Rovers Aktiv 131 / 124 40% 1 29.01.2027 -
Glenn Middleton Doncaster Rovers Aktiv 110 / 98 40% 1 28.01.2027 -
José Martínes CSKA 1948 Aktiv 104 / 112 40% 1 28.01.2027 -
Gonzalo Plata Dinamo Moscow Aktiv 130 / 131 40% 2 27.01.2027 -
Isaiah Jones Luton Town Aktiv 127 / 123 40% 4 27.01.2027 -
Caio Vidal Ludogorets Aktiv 129 / 128 40% 2 25.01.2027 -
Othmane Maamma Watford Aktiv 127 / 121 40% 2 25.01.2027 -
Lucas Ocampos LOSC Lille Aktiv 139 / 138 40% 1 24.01.2027 -
Iqraam Rayners Colchester United Aktiv 126 / 140 40% 1 24.01.2027 -
Adam Idah Swansea City Aktiv 113 / 127 40% 1 23.01.2027 -
Cédric Don Maccabi Haifa Aktiv 124 / 144 40% 1 23.01.2027 -
Daniel Kyerewaa Reading Aktiv 107 / 117 40% 1 22.01.2027 -
Esequiel Barco Spartak Moscow Abgelehnt 138 / 139 40% 3 20.01.2027 Ablehnen
Stanley Mills Oxford United Aktiv 134 / 132 40% 1 19.01.2027 -
Jack Diamond Stockport County Aktiv 124 / 108 40% 1 18.01.2027 -
Assad Al Hamlawi Universitatea Craiova Aktiv 107 / 132 40% 1 12.01.2027 -
Leandro Godoy CSKA Sofia Verloren 122 / 127 40% 1 12.01.2027 -
Julián Quiñones Lokomotiv Moscow Aktiv 155 / 156 40% 1 11.01.2027 -
Stanislav Agkatsev Sunderland Verhandlung 132 / 133 66% 1 01.01.2027 Befürworten
Israel Reyes CSKA Moscow Bericht bereit 137 / 137 68% 1 01.01.2027 Befürworten
Keagan Mothiba SuperSport United Aktiv 118 / 97 40% 1 01.01.2027 -
Marius Puscas Hajduk Split Aktiv 151 / 129 40% 3 30.12.2026 -
Mduduzi Shabalala Kaizer Chiefs Aktiv 115 / 99 40% 1 25.12.2026 -
Rubens Dinamo Moscow Aktiv 127 / 120 40% 1 23.12.2026 -
Ştefan Baiaram Universitatea Craiova Aktiv 129 / 115 40% 5 22.12.2026 -
Marquinhos Spartak Moscow Aktiv 124 / 135 40% 6 22.12.2026 -
Pedrinho Shakhtar Aktiv 129 / 135 40% 3 21.12.2026 Beobachten
Emmanuel Boateng Hapoel Tel Aviv Aktiv 123 / 121 40% 1 17.12.2026 -
Batxi Krasnodar Aktiv 134 / 125 40% 1 15.12.2026 -
Lewis Morgan SuperSport United Aktiv 138 / 137 40% 1 14.12.2026 -
Reda Khadra Qarabag Aktiv 128 / 122 40% 4 13.12.2026 -
Petar Stanić Ludogorets Aktiv 141 / 129 40% 2 11.12.2026 -
Angelo Gattermayer Wolfsberger AC Aktiv 113 / 128 40% 4 11.12.2026 -
Aljoša Matko Ujpest Aktiv 107 / 121 40% 4 10.12.2026 -
Alberto Soro Dinamo Bucharest Aktiv 120 / 124 40% 1 08.12.2026 -
Christian Krasnodar Aktiv 146 / 122 40% 5 07.12.2026 Beobachten
Marlon Gomes Shakhtar Aktiv 146 / 143 40% 4 03.12.2026 -
Ruben van Bommel Ferencvaros Aktiv 133 / 124 40% 2 01.12.2026 -
Alexandru Musi Voluntari Aktiv 112 / 111 40% 1 28.11.2026 -
Ofri Arad FCSB Aktiv 117 / 117 40% 1 26.11.2026 -
Alan Lescano Argentinos Juniors Aktiv 132 / 146 40% 1 23.11.2026 -
Marwan Ateya Al Ahly Aktiv 138 / 120 40% 1 23.11.2026 -
Márcio Mendes Pandurii Aktiv 120 / 127 40% 2 22.11.2026 -
Cătălin Cîrjan Dinamo Bucharest Aktiv 119 / 122 40% 2 22.11.2026 -
Darius Olaru FCSB Aktiv 134 / 107 40% 5 21.11.2026 -
Francisco González Metilli Belgrano Aktiv 121 / 116 40% 1 21.11.2026 -
Ronaldo Rostov Aktiv 119 / 130 40% 1 16.11.2026 -
Mandla Erasmus SuperSport United Aktiv 99 / 130 40% 2 14.11.2026 -
Jens Petter Hauge Bodo/Glimt Aktiv 155 / 158 40% 1 14.11.2026 -
Alexandru Cicâldău Universitatea Craiova Aktiv 131 / 125 40% 1 11.11.2026 -
Jack Currie Oxford United Aktiv 120 / 128 40% 1 10.11.2026 -
Daniel Armstrong Dinamo Bucharest Aktiv 109 / 130 40% 1 07.11.2026 -
Breel Embolo Atlanta United FC Aktiv 146 / 134 40% 1 06.11.2026 -
Nicolás Fernández Mercau Shakhtar Aktiv 141 / 144 40% 2 04.11.2026 -
Bénie Traoré New York City Aktiv 141 / 147 40% 1 04.11.2026 -
Miguel Castillo La Equidad Aktiv 122 / 126 40% 1 29.10.2026 -
Tobias Gulliksen Rapid Wien Aktiv 131 / 131 40% 1 29.10.2026 -
Rodrigo González Aldosivi Aktiv 139 / 116 40% 1 27.10.2026 -
Peter Christiansen Viking Aktiv 139 / 119 40% 1 24.10.2026 -
Luciano Gondou CSKA Moscow Aktiv 139 / 135 40% 1 20.10.2026 -
Veljko Birmančević Ferencvaros Aktiv 141 / 137 40% 2 16.10.2026 -
David Miculescu FCSB Aktiv 107 / 110 40% 1 10.10.2026 -
Fredrik Bjørkan Bodo/Glimt Aktiv 115 / 136 40% 1 09.10.2026 -
Ammar Ramadan DAC Dunajska Streda Aktiv 126 / 114 40% 1 08.10.2026 -
Conrad Wallem Austria Wien Aktiv 134 / 127 40% 2 01.10.2026 -
Oswin Appollis Orlando Pirates Aktiv 103 / 120 40% 1 30.09.2026 -
Franco Cristaldo Talleres Aktiv 146 / 143 40% 2 29.09.2026 -
Jonathan Levi Ferencvaros Aktiv 128 / 115 40% 2 28.09.2026 -
Antonio Galeano Remo Stars Aktiv 133 / 107 40% 1 26.09.2026 -
George Puşcaş Dinamo Bucharest Aktiv 113 / 122 40% 2 22.09.2026 -
Jaïro Riedewald Sheffield United Aktiv 129 / 107 40% 1 20.09.2026 -
Carlos Mora Universitatea Craiova Aktiv 133 / 133 40% 1 11.09.2026 -
Luka Kurtovic NK Domzale Aktiv 120 / 117 40% 1 04.09.2026 -
Djibril Diaw Botosani Aktiv 113 / 103 51% 1 31.08.2026 -
Dmitry Barinov CSKA Moscow Aktiv 127 / 137 40% 1 31.08.2026 -
Kings Kangwa Panathinaikos Aktiv 139 / 148 40% 1 04.08.2026 -
Tyrese Campbell Sheffield United Aktiv 120 / 114 40% 1 02.08.2026 -
Diego Villares Deportivo La Coruña Aktiv 118 / 111 40% 1 02.08.2026 -
Antonio Blanco Alavés Aktiv 155 / 134 40% 1 02.08.2026 -